createdAt,value
2017-09-27T02:22:20.845Z,11.6
2017-09-27T04:04:55.978Z,11.4
2017-09-27T04:08:52.305Z,11.4
2017-09-27T04:25:38.644Z,11.6
2017-09-27T04:34:30.897Z,11.6
2017-09-27T04:37:28.589Z,11.6
2017-09-27T04:42:24.680Z,11.5
2017-09-27T04:46:21.128Z,11.6
2017-09-27T04:48:19.690Z,11.6
2017-09-27T04:51:17.377Z,11.6
2017-09-27T04:53:15.433Z,11.6
2017-09-27T04:55:14.416Z,11.6
2017-09-27T04:59:10.486Z,11.5
2017-09-27T05:02:08.178Z,11.5
2017-09-27T05:03:07.101Z,11.5
2017-09-27T05:04:06.654Z,11.5
2017-09-27T05:07:04.344Z,11.6
2017-09-27T05:09:02.287Z,11.6
2017-09-27T05:10:01.463Z,11.6
2017-09-27T05:16:55.834Z,11.6
2017-09-27T05:18:53.889Z,11.6
2017-09-27T05:19:53.318Z,11.6
2017-09-27T05:22:50.763Z,11.6
2017-09-27T05:23:49.828Z,11.7
2017-09-27T05:27:46.810Z,11.7
2017-09-27T05:49:28.689Z,11.7
2017-09-27T05:50:27.738Z,11.7
2017-09-27T05:55:24.076Z,11.7
2017-09-27T05:56:22.746Z,11.7
2017-09-27T05:58:21.682Z,11.7
2017-09-27T05:59:20.498Z,11.7
2017-09-27T06:00:19.666Z,11.7
2017-09-27T06:01:18.839Z,11.7
2017-09-27T06:02:18.009Z,11.7
2017-09-27T06:03:17.058Z,11.7
2017-09-27T06:04:16.608Z,11.7
2017-09-27T06:04:47.223Z,11.7
2017-09-27T06:06:14.699Z,11.7
2017-09-27T06:07:14.000Z,11.7
2017-09-27T06:08:13.057Z,11.8
2017-09-27T06:09:12.228Z,11.8
2017-09-27T06:10:11.541Z,11.8
2017-09-27T06:11:10.587Z,11.8
2017-09-27T06:12:10.258Z,11.8
2017-09-27T06:13:09.310Z,11.8
2017-09-27T06:14:08.228Z,11.9
2017-09-27T06:15:07.404Z,11.9
2017-09-27T06:15:37.887Z,11.9
2017-09-27T06:16:08.257Z,11.9
2017-09-27T06:17:05.916Z,11.9
2017-09-27T06:18:05.478Z,11.9
2017-09-27T06:19:04.267Z,12
2017-09-27T06:20:03.579Z,12
2017-09-27T06:21:02.748Z,12
2017-09-27T06:22:01.926Z,12.1
2017-09-27T06:23:00.846Z,12.1
2017-09-27T06:25:58.751Z,12.2
2017-09-27T06:26:57.417Z,12.2
2017-09-27T06:27:57.096Z,12.2
2017-09-27T06:28:56.142Z,12.2
2017-09-27T06:29:55.185Z,12.2
2017-09-27T06:30:54.868Z,12.3
2017-09-27T06:31:53.541Z,12.3
2017-09-27T06:32:53.090Z,12.3
2017-09-27T06:33:52.134Z,12.4
2017-09-27T06:34:51.316Z,12.4
2017-09-27T06:35:50.497Z,12.4
2017-09-27T06:36:49.547Z,12.4
2017-09-27T06:37:48.843Z,12.5
2017-09-27T06:38:48.336Z,12.5
2017-09-27T06:39:47.255Z,12.5
2017-09-27T06:40:46.555Z,12.6
2017-09-27T06:43:43.994Z,12.7
2017-09-27T06:44:43.169Z,12.7
2017-09-27T06:45:42.339Z,12.7
2017-09-27T06:46:41.759Z,12.8
2017-09-27T06:47:11.870Z,12.8
2017-09-27T06:47:42.229Z,12.8
2017-09-27T06:48:39.887Z,12.9
2017-09-27T06:49:39.184Z,12.9
2017-09-27T06:50:38.243Z,12.9
2017-09-27T06:51:37.419Z,13
2017-09-27T06:52:36.723Z,13
2017-09-27T06:54:35.158Z,13.1
2017-09-27T06:55:05.639Z,13.1
2017-09-27T06:55:36.002Z,13.1
2017-09-27T06:56:06.624Z,13.1
2017-09-27T06:57:32.475Z,13.2
2017-09-27T06:58:02.706Z,13.2
2017-09-27T06:59:31.173Z,13.3
2017-09-27T07:00:30.091Z,13.3
2017-09-27T07:01:29.392Z,13.3
2017-09-27T07:02:28.447Z,13.4
2017-09-27T07:03:27.746Z,13.4
2017-09-27T07:04:27.290Z,13.4
2017-09-27T07:04:57.646Z,13.4
2017-09-27T07:05:28.299Z,13.5
2017-09-27T07:05:58.657Z,13.5
2017-09-27T07:06:29.141Z,13.5
2017-09-27T07:06:59.377Z,13.5
2017-09-27T07:07:29.991Z,13.5
2017-09-27T07:08:23.635Z,13.5
2017-09-27T07:08:53.993Z,13.5
2017-09-27T07:09:24.475Z,13.5
2017-09-27T07:10:22.136Z,13.6
2017-09-27T07:11:21.300Z,13.6
2017-09-27T07:12:20.728Z,13.6
2017-09-27T07:13:19.902Z,13.6
2017-09-27T07:17:16.852Z,13.6
2017-09-27T07:18:16.026Z,13.7
2017-09-27T07:19:14.823Z,13.7
2017-09-27T07:21:13.515Z,13.7
2017-09-27T07:22:12.707Z,13.7
2017-09-27T07:24:11.140Z,13.7
2017-09-27T07:25:10.066Z,13.7
2017-09-27T07:27:08.756Z,13.7
2017-09-27T07:28:07.675Z,13.7
2017-09-27T07:30:06.363Z,13.8
2017-09-27T07:32:04.667Z,13.8
2017-09-27T07:33:03.711Z,13.8
2017-09-27T07:34:03.265Z,13.8
2017-09-27T07:35:02.190Z,13.8
2017-09-27T07:36:01.494Z,13.9
2017-09-27T07:37:00.541Z,13.9
2017-09-27T07:37:31.157Z,13.9
2017-09-27T07:38:01.639Z,13.9
2017-09-27T07:38:31.623Z,13.9
2017-09-27T07:39:02.232Z,13.9
2017-09-27T07:39:32.482Z,13.9
2017-09-27T07:40:57.457Z,14
2017-09-27T07:42:56.150Z,14
2017-09-27T07:44:54.712Z,14.1
2017-09-27T07:45:53.649Z,14.1
2017-09-27T07:46:52.946Z,14.1
2017-09-27T07:47:52.122Z,14.2
2017-09-27T07:48:51.418Z,14.2
2017-09-27T07:49:50.831Z,14.2
2017-09-27T07:50:50.138Z,14.2
2017-09-27T07:51:48.686Z,14.2
2017-09-27T07:52:48.111Z,14.2
2017-09-27T07:53:47.532Z,14.3
2017-09-27T07:54:46.714Z,14.3
2017-09-27T07:55:46.020Z,14.3
2017-09-27T07:58:43.336Z,14.4
2017-09-27T07:59:42.631Z,14.4
2017-09-27T08:00:41.674Z,14.4
2017-09-27T08:01:40.845Z,14.5
2017-09-27T08:02:40.142Z,14.5
2017-09-27T08:03:39.447Z,14.5
2017-09-27T08:05:38.380Z,14.6
2017-09-27T08:06:37.044Z,14.6
2017-09-27T08:09:35.114Z,14.7
2017-09-27T08:10:34.038Z,14.8
2017-09-27T08:12:33.029Z,14.8
2017-09-27T08:13:32.080Z,14.9
2017-09-27T08:15:30.261Z,14.9
2017-09-27T08:16:29.681Z,15
2017-09-27T08:17:28.850Z,15
2017-09-27T08:18:27.775Z,15
2017-09-27T08:19:27.203Z,15
2017-09-27T08:20:26.515Z,15.1
2017-09-27T08:22:25.198Z,15.1
2017-09-27T08:23:23.997Z,15.1
2017-09-27T08:24:23.429Z,15.2
2017-09-27T08:26:22.113Z,15.3
2017-09-27T08:27:21.044Z,15.3
2017-09-27T08:28:20.081Z,15.3
2017-09-27T08:30:19.153Z,15.5
2017-09-27T08:31:18.077Z,15.5
2017-09-27T08:33:16.388Z,15.7
2017-09-27T08:34:15.690Z,15.7
2017-09-27T08:35:15.370Z,15.7
2017-09-27T08:37:13.549Z,15.8
2017-09-27T08:38:12.843Z,15.8
2017-09-27T08:40:11.033Z,15.9
2017-09-27T08:41:10.459Z,15.9
2017-09-27T08:43:08.890Z,16
2017-09-27T08:49:04.611Z,16.1
2017-09-27T08:53:01.687Z,16.1
2017-09-27T08:55:59.257Z,16.1
2017-09-27T08:56:58.553Z,16.1
2017-09-27T08:57:57.982Z,16.2
2017-09-27T09:14:45.194Z,16.4
2017-09-27T09:15:15.559Z,16.4
2017-09-27T09:28:34.542Z,16.6
2017-09-27T09:34:30.776Z,16.6
2017-09-27T09:35:29.447Z,16.6
2017-09-27T10:00:11.490Z,16.9
2017-09-27T10:01:10.670Z,16.9
2017-09-27T10:07:06.396Z,17.1
2017-09-27T10:08:05.567Z,17.1
2017-09-27T10:10:04.133Z,17.2
2017-09-27T10:11:03.556Z,17.2
2017-09-27T10:12:02.600Z,17.2
2017-09-27T10:13:02.273Z,17.3
2017-09-27T10:14:01.453Z,17.3
2017-09-27T10:14:31.939Z,17.3
2017-09-27T10:15:02.172Z,17.3
2017-09-27T10:16:00.089Z,17.4
2017-09-27T10:16:59.418Z,17.4
2017-09-27T10:17:58.343Z,17.4
2017-09-27T10:18:57.889Z,17.4
2017-09-27T10:19:57.312Z,17.4
2017-09-27T10:20:56.372Z,17.5
2017-09-27T10:21:55.547Z,17.5
2017-09-27T10:22:54.717Z,17.5
2017-09-27T10:23:54.527Z,17.5
2017-09-27T10:24:53.446Z,17.6
2017-09-27T10:25:24.306Z,17.6
2017-09-27T10:25:54.546Z,17.6
2017-09-27T10:27:51.124Z,17.6
2017-09-27T10:28:50.851Z,17.6
2017-09-27T10:29:49.912Z,17.6
2017-09-27T10:30:49.339Z,17.7
2017-09-27T10:31:48.504Z,17.7
2017-09-27T10:33:47.066Z,17.7
2017-09-27T10:35:45.752Z,17.8
2017-09-27T10:40:41.961Z,17.8
2017-09-27T10:42:40.649Z,17.8
2017-09-27T10:44:39.340Z,17.8
2017-09-27T10:45:38.384Z,17.8
2017-09-27T10:47:37.210Z,17.8
2017-09-27T10:50:34.779Z,17.9
2017-09-27T10:51:34.206Z,17.9
2017-09-27T10:52:33.374Z,17.9
2017-09-27T10:57:30.093Z,17.8
2017-09-27T10:58:00.321Z,17.8
2017-09-27T10:59:28.803Z,17.9
2017-09-27T11:06:24.245Z,17.9
2017-09-27T11:07:23.176Z,17.9
2017-09-27T11:07:53.637Z,17.9
2017-09-27T11:13:18.723Z,17.8
2017-09-27T11:14:18.277Z,17.9
2017-09-27T11:17:15.972Z,17.9
2017-09-27T11:18:15.277Z,17.9
2017-09-27T11:19:14.575Z,17.9
2017-09-27T11:20:13.879Z,17.9
2017-09-27T11:25:10.728Z,17.9
2017-09-27T11:31:06.583Z,17.9
2017-09-27T11:33:04.882Z,17.9
2017-09-27T11:36:02.825Z,18
2017-09-27T11:44:56.194Z,18.1
2017-09-27T11:45:55.743Z,18.2
2017-09-27T11:52:51.102Z,18.4
2017-09-27T11:57:47.690Z,18.4
2017-09-27T11:59:46.502Z,18.5
2017-09-27T12:00:45.555Z,18.5
2017-09-27T12:07:40.827Z,18.6
2017-09-27T12:09:39.258Z,18.6
2017-09-27T12:16:34.624Z,18.7
2017-09-27T12:22:30.222Z,18.7
2017-09-27T12:27:27.187Z,18.9
2017-09-27T12:29:25.384Z,18.9
2017-09-27T12:30:24.937Z,19
2017-09-27T12:34:22.392Z,19.1
2017-09-27T12:46:13.724Z,19.4
2017-09-27T12:46:44.212Z,19.4
2017-09-27T12:47:14.447Z,19.4
2017-09-27T12:47:44.838Z,19.4
2017-09-27T12:49:12.196Z,19.4
2017-09-27T12:53:09.392Z,19.3
2017-09-27T12:54:08.706Z,19.3
2017-09-27T12:56:07.265Z,19.2
2017-09-27T12:57:06.585Z,19.2
2017-09-27T12:58:05.894Z,19.2
2017-09-27T13:01:04.088Z,19.1
2017-09-27T13:02:03.521Z,19.1
2017-09-27T13:03:02.592Z,19.1
2017-09-27T13:04:01.923Z,19.1
2017-09-27T13:05:01.188Z,19.1
2017-09-27T13:06:59.871Z,19.1
2017-09-27T13:07:59.295Z,19.1
2017-09-27T13:08:58.338Z,19.1
2017-09-27T13:09:57.769Z,19.1
2017-09-27T13:11:56.699Z,19.1
2017-09-27T13:14:54.765Z,19.2
2017-09-27T13:15:53.938Z,19.2
2017-09-27T13:16:53.370Z,19.2
2017-09-27T13:17:52.545Z,19.2
2017-09-27T13:18:52.222Z,19.3
2017-09-27T13:19:51.522Z,19.3
2017-09-27T13:20:50.575Z,19.3
2017-09-27T13:22:49.511Z,19.4
2017-09-27T13:23:48.557Z,19.5
2017-09-27T13:26:46.772Z,19.9
2017-09-27T13:28:45.201Z,20.1
2017-09-27T13:29:44.627Z,20.2
2017-09-27T13:30:44.061Z,20.3
2017-09-27T13:31:43.115Z,20.4
2017-09-27T13:32:13.728Z,20.4
2017-09-27T13:32:44.215Z,20.4
2017-09-27T13:33:41.758Z,20.5
2017-09-27T13:34:41.438Z,20.6
2017-09-27T13:35:40.748Z,20.6
2017-09-27T13:36:40.055Z,20.7
2017-09-27T13:37:39.225Z,20.8
2017-09-27T13:38:38.523Z,20.7
2017-09-27T13:39:38.071Z,20.8
2017-09-27T13:40:37.501Z,20.8
2017-09-27T13:43:35.693Z,20.6
2017-09-27T13:44:34.992Z,20.6
2017-09-27T13:45:34.322Z,20.6
2017-09-27T13:47:33.131Z,20.7
2017-09-27T13:52:29.476Z,20.9
2017-09-27T13:53:28.915Z,20.9
2017-09-27T13:54:28.211Z,20.9
2017-09-27T13:55:27.516Z,21
2017-09-27T13:56:27.205Z,21
2017-09-27T13:57:26.374Z,21
2017-09-27T13:58:25.668Z,21
2017-09-27T14:04:22.026Z,21.2
2017-09-27T14:05:21.069Z,21.2
2017-09-27T14:06:20.753Z,21.3
2017-09-27T14:07:20.050Z,21.4
2017-09-27T14:08:19.231Z,21.4
2017-09-27T14:09:18.781Z,21.4
2017-09-27T14:10:17.964Z,21.3
2017-09-27T14:11:17.138Z,21.3
2017-09-27T14:12:16.818Z,21.2
2017-09-27T14:15:15.051Z,21
2017-09-27T14:19:12.651Z,20.9
2017-09-27T14:22:10.725Z,20.9
2017-09-27T14:26:07.690Z,21
2017-09-27T14:30:05.269Z,20.9
2017-09-27T14:34:02.728Z,20.9
2017-09-27T15:22:32.216Z,19.8
2017-09-27T16:40:41.055Z,17.8
2017-09-27T16:41:40.106Z,17.7
2017-09-27T16:48:35.477Z,17.5
2017-09-27T16:49:35.155Z,17.5
2017-09-27T16:50:34.457Z,17.4
2017-09-27T16:51:33.496Z,17.4
2017-09-27T16:53:31.930Z,17.4
2017-09-27T16:54:31.483Z,17.4
2017-09-27T16:55:30.914Z,17.3
2017-09-27T16:57:29.734Z,17.2
2017-09-27T17:01:26.824Z,17.1
2017-09-27T17:03:25.383Z,17
2017-09-27T17:09:21.497Z,16.9
2017-09-27T17:12:19.067Z,16.8
2017-09-27T17:13:18.359Z,16.8
2017-09-27T17:15:17.551Z,16.8
2017-09-27T17:16:16.604Z,16.7
2017-09-27T17:17:15.904Z,16.7
2017-09-27T17:18:15.323Z,16.7
2017-09-27T17:19:14.500Z,16.7
2017-09-27T17:20:13.800Z,16.7
2017-09-27T17:21:13.228Z,16.7
2017-09-27T17:22:12.407Z,16.6
2017-09-27T17:23:11.584Z,16.6
2017-09-27T17:24:11.013Z,16.6
2017-09-27T17:25:10.440Z,16.5
2017-09-27T17:26:09.360Z,16.5
2017-09-27T17:27:08.803Z,16.5
2017-09-27T17:28:08.488Z,16.5
2017-09-27T17:29:07.167Z,16.5
2017-09-27T17:30:06.973Z,16.5
2017-09-27T17:31:06.026Z,16.4
2017-09-27T17:32:05.220Z,16.4
2017-09-27T17:33:04.525Z,16.4
2017-09-27T17:34:03.955Z,16.4
2017-09-27T17:35:03.375Z,16.4
2017-09-27T17:37:02.182Z,16.4
2017-09-27T17:38:01.361Z,16.3
2017-09-27T17:39:00.665Z,16.3
2017-09-27T17:39:59.711Z,16.3
2017-09-27T17:40:59.009Z,16.3
2017-09-27T17:41:58.445Z,16.3
2017-09-27T17:42:57.528Z,16.3
2017-09-27T17:43:57.075Z,16.2
2017-09-27T17:44:56.126Z,16.2
2017-09-27T17:45:55.551Z,16.2
2017-09-27T17:46:54.854Z,16.2
2017-09-27T17:47:54.284Z,16.2
2017-09-27T17:48:53.459Z,16.2
2017-09-27T17:49:52.760Z,16.2
2017-09-27T17:50:51.926Z,16.1
2017-09-27T17:51:51.481Z,16.1
2017-09-27T17:52:50.775Z,16.1
2017-09-27T17:53:50.074Z,16.1
2017-09-27T17:54:49.118Z,16.1
2017-09-27T17:55:48.672Z,16
2017-09-27T17:56:48.225Z,16
2017-09-27T17:57:46.769Z,16
2017-09-27T17:58:46.061Z,16
2017-09-27T18:00:45.127Z,16
2017-09-27T18:02:43.559Z,15.9
2017-09-27T18:04:41.984Z,15.9
2017-09-27T18:05:41.415Z,15.9
2017-09-27T18:06:40.969Z,15.9
2017-09-27T18:07:40.392Z,15.9
2017-09-27T18:08:39.319Z,15.9
2017-09-27T18:09:38.752Z,15.8
2017-09-27T18:10:38.049Z,15.8
2017-09-27T18:11:37.473Z,15.8
2017-09-27T18:12:36.400Z,15.8
2017-09-27T18:14:35.213Z,15.8
2017-09-27T18:15:34.137Z,15.7
2017-09-27T18:17:32.703Z,15.7
2017-09-27T18:18:32.004Z,15.7
2017-09-27T18:19:31.306Z,15.7
2017-09-27T18:20:30.480Z,15.7
2017-09-27T18:21:29.786Z,15.7
2017-09-27T18:24:27.996Z,15.7
2017-09-27T18:25:27.297Z,15.7
2017-09-27T18:27:25.481Z,15.6
2017-09-27T18:28:25.150Z,15.6
2017-09-27T18:31:22.716Z,15.6
2017-09-27T18:32:22.144Z,15.6
2017-09-27T18:35:19.852Z,15.6
2017-09-27T18:39:17.319Z,15.5
2017-09-27T18:47:11.322Z,15.5
2017-09-27T19:49:24.833Z,15.3
2017-09-27T19:50:24.645Z,15.3
2017-09-27T19:52:22.828Z,15.3
2017-09-27T20:19:03.044Z,15.1
2017-09-27T20:20:02.228Z,15.1
2017-09-27T20:23:59.335Z,15
2017-09-27T20:24:58.752Z,15
2017-09-27T20:28:55.712Z,15
2017-09-27T20:37:48.980Z,14.9
2017-09-27T20:38:48.403Z,14.9
2017-09-27T20:41:45.847Z,14.9
2017-09-27T20:45:43.070Z,14.9
2017-09-27T20:50:39.409Z,14.8
2017-09-27T20:57:34.032Z,14.8
2017-09-27T21:03:29.512Z,14.8
2017-09-27T21:04:28.945Z,14.8
2017-09-27T21:17:18.871Z,14.7
2017-09-27T21:18:18.546Z,14.7
2017-09-27T21:19:17.857Z,14.7
2017-09-27T21:20:16.909Z,14.7
2017-09-27T21:21:16.337Z,14.7
2017-09-27T21:23:14.641Z,14.6
2017-09-27T21:24:13.696Z,14.6
2017-09-27T21:27:11.638Z,14.6
2017-09-27T21:28:10.952Z,14.6
2017-09-27T21:30:09.392Z,14.5
2017-09-27T21:32:07.697Z,14.5
2017-09-27T21:33:07.240Z,14.5
2017-09-27T21:34:06.286Z,14.4
2017-09-27T21:35:05.453Z,14.4
2017-09-27T21:36:04.880Z,14.4
2017-09-27T21:37:04.174Z,14.4
2017-09-27T21:40:01.983Z,14.4
2017-09-27T21:41:01.320Z,14.4
2017-09-27T21:42:00.129Z,14.4
2017-09-27T21:44:58.339Z,14.4
2017-09-27T21:45:57.513Z,14.4
2017-09-27T21:47:55.568Z,14.3
2017-09-27T21:48:55.371Z,14.3
2017-09-27T21:49:54.291Z,14.3
2017-09-27T21:50:53.715Z,14.3
2017-09-27T21:52:51.907Z,14.3
2017-09-27T21:53:51.568Z,14.3
2017-09-27T21:54:50.361Z,14.3
2017-09-27T21:55:49.660Z,14.3
2017-09-27T21:56:48.958Z,14.2
2017-09-27T21:57:48.261Z,14.2
2017-09-27T21:58:47.692Z,14.2
2017-09-27T22:00:46.364Z,14.2
2017-09-27T22:01:45.032Z,14.2
2017-09-27T22:02:44.459Z,14.2
2017-09-27T22:05:42.410Z,14.1
2017-09-27T22:06:41.587Z,14.1
2017-09-27T22:07:40.768Z,14.1
2017-09-27T22:09:39.085Z,14.1
2017-09-27T22:10:38.765Z,14.1
2017-09-27T22:11:37.949Z,14.1
2017-09-27T22:13:36.141Z,14
2017-09-27T22:15:35.081Z,14
2017-09-27T22:16:34.032Z,14
2017-09-27T22:17:33.473Z,14
2017-09-27T22:18:32.421Z,14
2017-09-27T22:19:31.600Z,13.9
2017-09-27T22:21:30.043Z,13.9
2017-09-27T22:22:29.231Z,13.9
2017-09-27T22:23:28.534Z,13.9
2017-09-27T22:24:27.971Z,13.9
2017-09-27T22:24:58.494Z,13.9
2017-09-27T22:25:29.125Z,13.9
2017-09-27T22:25:59.243Z,13.9
2017-09-27T22:26:29.861Z,13.9
2017-09-27T22:27:25.517Z,13.9
2017-09-27T22:28:24.569Z,13.8
2017-09-27T22:29:23.880Z,13.8
2017-09-27T22:31:22.700Z,13.8
2017-09-27T22:32:21.375Z,13.8
2017-09-27T22:33:20.818Z,13.8
2017-09-27T22:34:20.254Z,13.8
2017-09-27T22:34:50.791Z,13.8
2017-09-27T22:36:18.911Z,13.8
2017-09-27T22:36:49.021Z,13.8
2017-09-27T22:37:19.638Z,13.8
2017-09-27T22:37:49.622Z,13.8
2017-09-27T22:38:19.988Z,13.7
2017-09-27T22:38:50.223Z,13.7
2017-09-27T22:40:15.328Z,13.7
2017-09-27T22:41:14.769Z,13.7
2017-09-27T22:42:14.197Z,13.7
2017-09-27T22:43:13.497Z,13.7
2017-09-27T22:44:12.671Z,13.7
2017-09-27T22:45:11.970Z,13.7
2017-09-27T22:46:11.147Z,13.7
2017-09-27T22:47:10.073Z,13.6
2017-09-27T22:49:08.766Z,13.6
2017-09-27T22:50:08.073Z,13.6
2017-09-27T22:51:07.380Z,13.6
2017-09-27T22:52:06.183Z,13.6
2017-09-27T22:53:05.494Z,13.6
2017-09-27T22:54:04.797Z,13.6
2017-09-27T22:55:04.222Z,13.6
2017-09-27T22:56:03.655Z,13.6
2017-09-27T22:58:01.848Z,13.6
2017-09-27T22:59:01.152Z,13.5
2017-09-27T23:00:00.469Z,13.5
2017-09-27T23:01:58.403Z,13.5
2017-09-27T23:03:57.217Z,13.5
2017-09-27T23:05:55.791Z,13.5
2017-09-27T23:06:26.416Z,13.5
2017-09-27T23:06:56.542Z,13.5
2017-09-27T23:08:53.224Z,13.5
2017-09-27T23:09:52.528Z,13.5
2017-09-27T23:10:51.966Z,13.4
2017-09-27T23:11:51.141Z,13.4
2017-09-27T23:12:50.319Z,13.4
2017-09-27T23:13:49.628Z,13.4
2017-09-27T23:14:48.932Z,13.4
2017-09-27T23:15:47.856Z,13.4
2017-09-27T23:16:47.289Z,13.4
2017-09-27T23:17:17.526Z,13.4
2017-09-27T23:20:43.780Z,13.3
2017-09-27T23:21:43.086Z,13.3
2017-09-27T23:22:42.766Z,13.3
2017-09-27T23:23:41.567Z,13.3
2017-09-27T23:25:40.390Z,13.3
2017-09-27T23:27:38.702Z,13.3
2017-09-27T23:28:37.757Z,13.3
2017-09-27T23:31:35.456Z,13.2
2017-09-27T23:32:34.890Z,13.2
2017-09-27T23:33:33.942Z,13.2
2017-09-27T23:34:33.371Z,13.2
2017-09-27T23:35:32.430Z,13.2
2017-09-27T23:36:31.869Z,13.2
2017-09-27T23:37:31.210Z,13.2
2017-09-27T23:38:30.132Z,13.2
2017-09-27T23:39:29.568Z,13.2
2017-09-27T23:40:28.496Z,13.1
2017-09-27T23:41:27.673Z,13.1
2017-09-27T23:43:26.370Z,13.1
2017-09-27T23:44:25.550Z,13.1
2017-09-27T23:45:24.477Z,13.1
2017-09-27T23:46:23.655Z,13.1
2017-09-27T23:47:23.091Z,13.1
2017-09-27T23:50:20.813Z,13.1
2017-09-27T23:51:19.838Z,13
2017-09-27T23:52:18.903Z,13
2017-09-27T23:53:18.590Z,13
2017-09-27T23:54:17.643Z,13
2017-09-27T23:55:16.945Z,13
2017-09-27T23:57:15.256Z,13
